createdAt,value
2022-12-28T00:01:14.291Z,4.07
2022-12-28T00:06:19.746Z,3.85
2022-12-28T00:11:27.564Z,3.35
2022-12-28T00:16:36.294Z,3.15
2022-12-28T00:21:41.014Z,3.30
2022-12-28T00:26:43.821Z,3.50
2022-12-28T00:31:47.299Z,3.05
2022-12-28T00:37:08.885Z,2.28
2022-12-28T00:42:15.273Z,2.38
2022-12-28T00:47:18.155Z,2.53
2022-12-28T00:52:22.309Z,3.05
2022-12-28T00:57:25.127Z,3.28
2022-12-28T01:02:27.989Z,2.65
2022-12-28T01:07:32.250Z,1.83
2022-12-28T01:12:38.245Z,1.80
2022-12-28T01:17:41.624Z,1.75
2022-12-28T01:22:45.776Z,1.90
2022-12-28T01:27:50.403Z,2.08
2022-12-28T01:32:54.135Z,1.60
2022-12-28T01:37:59.206Z,1.50
2022-12-28T01:43:02.347Z,1.88
2022-12-28T01:48:05.690Z,1.75
2022-12-28T01:53:11.471Z,1.77
2022-12-28T01:58:18.425Z,1.40
2022-12-28T02:03:26.958Z,2.00
2022-12-28T02:13:39.028Z,2.13
2022-12-28T02:18:44.408Z,2.17
2022-12-28T02:24:38.161Z,1.80
2022-12-28T02:30:07.527Z,1.83
2022-12-28T02:35:16.348Z,1.60
2022-12-28T02:40:25.021Z,1.90
2022-12-28T02:45:53.050Z,2.20
2022-12-28T02:51:15.546Z,2.40
2022-12-28T02:56:34.784Z,2.13
2022-12-28T03:02:05.289Z,1.70
2022-12-28T03:07:35.588Z,1.77
2022-12-28T03:12:44.857Z,2.00
2022-12-28T03:18:08.204Z,1.80
2022-12-28T03:23:32.563Z,1.80
2022-12-28T03:28:56.886Z,1.80
2022-12-28T03:34:07.543Z,2.00
2022-12-28T03:39:32.226Z,2.45
2022-12-28T03:44:36.595Z,1.70
2022-12-28T03:49:41.306Z,1.92
2022-12-28T03:54:45.232Z,2.25
2022-12-28T03:59:50.572Z,2.08
2022-12-28T04:04:55.984Z,1.90
2022-12-28T04:09:59.516Z,2.10
2022-12-28T04:15:02.457Z,2.20
2022-12-28T04:20:09.904Z,1.95
2022-12-28T04:25:12.918Z,2.03
2022-12-28T04:30:16.438Z,3.40
2022-12-28T04:35:20.913Z,1.85
2022-12-28T04:40:25.869Z,2.25
2022-12-28T04:45:28.734Z,1.65
2022-12-28T04:50:33.028Z,1.80
2022-12-28T04:55:36.146Z,1.73
2022-12-28T05:00:39.195Z,1.88
2022-12-28T05:05:43.301Z,1.95
2022-12-28T05:10:46.075Z,2.53
2022-12-28T05:15:48.896Z,2.40
2022-12-28T05:21:00.133Z,2.75
2022-12-28T05:26:03.351Z,2.33
2022-12-28T05:31:08.671Z,2.00
2022-12-28T05:36:14.990Z,2.30
2022-12-28T05:41:19.421Z,1.90
2022-12-28T05:46:25.265Z,2.58
2022-12-28T05:51:32.212Z,2.38
2022-12-28T05:56:35.328Z,3.10
2022-12-28T06:01:40.591Z,2.50
2022-12-28T06:06:46.058Z,2.20
2022-12-28T06:11:48.864Z,2.00
2022-12-28T06:16:52.074Z,1.80
2022-12-28T06:21:56.229Z,1.70
2022-12-28T06:26:59.069Z,2.08
2022-12-28T06:32:02.009Z,2.42
2022-12-28T06:37:06.217Z,1.90
2022-12-28T06:42:08.997Z,1.98
2022-12-28T06:47:12.210Z,2.92
2022-12-28T06:52:16.436Z,2.33
2022-12-28T06:57:19.572Z,2.05
2022-12-28T07:02:22.565Z,2.63
2022-12-28T07:07:27.108Z,2.10
2022-12-28T07:12:29.904Z,2.30
2022-12-28T07:17:32.658Z,2.40
2022-12-28T07:22:36.739Z,2.45
2022-12-28T07:27:39.488Z,2.50
2022-12-28T07:32:42.212Z,2.38
2022-12-28T07:37:46.429Z,2.40
2022-12-28T07:42:49.184Z,2.35
2022-12-28T07:47:52.020Z,2.17
2022-12-28T07:52:59.243Z,2.40
2022-12-28T07:58:01.964Z,2.60
2022-12-28T08:03:04.790Z,2.60
2022-12-28T08:08:08.927Z,2.60
2022-12-28T08:13:11.727Z,2.88
2022-12-28T08:18:14.538Z,2.92
2022-12-28T08:23:18.703Z,2.90
2022-12-28T08:28:21.500Z,3.50
2022-12-28T08:33:24.347Z,2.75
2022-12-28T08:38:28.705Z,3.00
2022-12-28T08:43:32.821Z,3.47
2022-12-28T08:48:36.288Z,3.42
2022-12-28T08:53:41.304Z,3.90
2022-12-28T08:58:46.075Z,4.07
2022-12-28T09:03:50.497Z,4.65
2022-12-28T09:09:05.333Z,4.40
2022-12-28T09:14:14.458Z,4.90
2022-12-28T09:19:22.086Z,5.63
2022-12-28T09:24:26.302Z,6.47
2022-12-28T09:29:29.015Z,6.68
2022-12-28T09:34:36.773Z,6.22
2022-12-28T09:44:50.425Z,5.25
2022-12-28T09:50:24.977Z,5.13
2022-12-28T09:55:33.052Z,5.15
2022-12-28T10:00:40.611Z,5.80
2022-12-28T10:05:43.450Z,5.00
2022-12-28T10:10:49.339Z,5.00
2022-12-28T10:15:53.586Z,4.80
2022-12-28T10:20:57.005Z,4.50
2022-12-28T10:26:02.909Z,4.78
2022-12-28T10:31:08.359Z,5.07
2022-12-28T10:36:14.581Z,4.95
2022-12-28T10:41:20.691Z,4.78
2022-12-28T10:46:25.068Z,4.65
2022-12-28T10:51:30.286Z,4.97
2022-12-28T10:56:46.128Z,4.85
2022-12-28T11:01:48.997Z,5.30
2022-12-28T11:06:53.714Z,4.95
2022-12-28T11:12:17.491Z,5.25
2022-12-28T11:17:22.369Z,4.30
2022-12-28T11:22:27.990Z,4.93
2022-12-28T11:27:32.211Z,4.55
2022-12-28T11:32:40.476Z,4.55
2022-12-28T11:37:50.477Z,4.15
2022-12-28T11:42:57.180Z,3.75
2022-12-28T11:48:33.193Z,3.85
2022-12-28T11:53:55.360Z,3.67
2022-12-28T11:59:24.683Z,3.70
2022-12-28T12:04:34.116Z,3.05
2022-12-28T12:09:45.353Z,3.03
2022-12-28T12:14:56.163Z,3.13
2022-12-28T12:20:04.008Z,2.90
2022-12-28T12:25:15.599Z,2.90
2022-12-28T12:30:22.810Z,2.63
2022-12-28T12:35:28.188Z,3.00
2022-12-28T12:40:50.287Z,2.92
2022-12-28T12:46:03.468Z,3.40
2022-12-28T12:51:26.711Z,3.65
2022-12-28T12:56:40.608Z,3.63
2022-12-28T13:01:54.300Z,4.13
2022-12-28T13:07:00.710Z,3.58
2022-12-28T13:12:03.815Z,3.40
2022-12-28T13:17:14.879Z,4.60
2022-12-28T13:22:28.758Z,4.10
2022-12-28T13:27:35.228Z,4.85
2022-12-28T13:32:52.258Z,4.82
2022-12-28T13:38:04.152Z,4.70
2022-12-28T13:43:46.289Z,5.05
2022-12-28T13:48:52.859Z,4.00
2022-12-28T13:54:00.614Z,3.95
2022-12-28T13:59:07.852Z,4.25
2022-12-28T14:09:39.698Z,3.80
2022-12-28T14:14:44.331Z,4.57
2022-12-28T14:19:49.105Z,3.88
2022-12-28T14:25:03.011Z,3.55
2022-12-28T14:30:07.775Z,3.70
2022-12-28T14:35:19.212Z,4.00
2022-12-28T14:40:30.483Z,3.70
2022-12-28T14:46:07.300Z,3.40
2022-12-28T14:51:05.000Z,3.80
2022-12-28T14:56:11.970Z,3.53
2022-12-28T15:01:14.925Z,3.42
2022-12-28T15:06:19.989Z,3.22
2022-12-28T15:11:24.963Z,3.28
2022-12-28T15:16:27.824Z,3.42
2022-12-28T15:21:33.222Z,3.30
2022-12-28T15:26:36.024Z,3.28
2022-12-28T15:31:38.923Z,3.90
2022-12-28T15:36:45.462Z,6.50
2022-12-28T15:41:48.234Z,4.50
2022-12-28T15:46:51.552Z,2.85
2022-12-28T15:51:55.714Z,3.92
2022-12-28T15:56:58.490Z,3.38
2022-12-28T16:02:01.740Z,3.00
2022-12-28T16:07:08.148Z,2.92
2022-12-28T16:12:11.061Z,2.95
2022-12-28T16:17:14.580Z,3.75
2022-12-28T16:22:18.721Z,3.45
2022-12-28T16:27:21.646Z,3.58
2022-12-28T16:32:28.601Z,3.83
2022-12-28T16:37:32.743Z,3.30
2022-12-28T16:42:35.841Z,3.88
2022-12-28T16:47:44.445Z,3.88
2022-12-28T16:52:49.205Z,4.30
2022-12-28T16:57:51.928Z,4.85
2022-12-28T17:02:55.021Z,5.20
2022-12-28T17:07:59.375Z,5.18
2022-12-28T17:13:02.261Z,3.97
2022-12-28T17:18:11.596Z,6.35
2022-12-28T17:23:18.229Z,6.30
2022-12-28T17:28:26.758Z,8.32
2022-12-28T17:33:34.035Z,9.07
2022-12-28T17:38:43.192Z,11.02
2022-12-28T17:43:53.609Z,5.03
2022-12-28T17:49:00.886Z,14.45
2022-12-28T17:54:05.686Z,6.22
2022-12-28T17:59:08.792Z,6.82
2022-12-28T18:04:14.516Z,15.23
2022-12-28T18:09:25.707Z,6.30
2022-12-28T18:14:30.773Z,8.38
2022-12-28T18:19:33.530Z,6.95
2022-12-28T18:24:39.013Z,6.53
2022-12-28T18:29:47.862Z,4.50
2022-12-28T18:34:55.103Z,3.58
2022-12-28T18:40:01.747Z,3.60
2022-12-28T18:45:13.704Z,3.70
2022-12-28T18:50:19.309Z,3.50
2022-12-28T18:55:25.640Z,3.58
2022-12-28T19:00:29.805Z,3.10
2022-12-28T19:05:32.764Z,2.42
2022-12-28T19:10:47.626Z,3.50
2022-12-28T19:15:58.429Z,2.25
2022-12-28T19:21:19.416Z,2.38
2022-12-28T19:26:37.259Z,2.85
2022-12-28T19:31:43.045Z,2.15
2022-12-28T19:36:46.120Z,1.88
2022-12-28T19:41:55.666Z,2.40
2022-12-28T19:47:01.249Z,3.15
2022-12-28T19:52:10.609Z,3.42
2022-12-28T19:57:15.585Z,2.17
2022-12-28T20:02:23.358Z,2.33
2022-12-28T20:07:29.476Z,1.90
2022-12-28T20:12:33.621Z,2.05
2022-12-28T20:17:36.397Z,2.17
2022-12-28T20:22:41.314Z,2.38
2022-12-28T20:27:45.435Z,1.90
2022-12-28T20:32:48.429Z,2.67
2022-12-28T20:37:51.227Z,2.83
2022-12-28T20:43:12.637Z,2.20
2022-12-28T20:48:15.774Z,2.20
2022-12-28T20:53:18.560Z,3.10
2022-12-28T20:58:22.785Z,3.50
2022-12-28T21:03:25.535Z,2.55
2022-12-28T21:08:31.049Z,2.40
2022-12-28T21:13:40.734Z,2.90
2022-12-28T21:18:45.406Z,2.20
2022-12-28T21:23:48.618Z,2.15
2022-12-28T21:28:53.047Z,1.88
2022-12-28T21:33:56.541Z,2.10
2022-12-28T21:38:59.298Z,2.30
2022-12-28T21:44:03.445Z,2.60
2022-12-28T21:49:07.137Z,2.40
2022-12-28T21:54:13.217Z,2.30
2022-12-28T21:59:17.619Z,2.20
2022-12-28T22:04:39.594Z,2.22
2022-12-28T22:09:59.628Z,2.35
2022-12-28T22:15:27.108Z,2.10
2022-12-28T22:20:30.865Z,2.20
2022-12-28T22:25:34.399Z,2.25
2022-12-28T22:30:38.797Z,2.60
2022-12-28T22:35:41.528Z,2.20
2022-12-28T22:40:44.347Z,2.40
2022-12-28T22:45:48.534Z,2.30
2022-12-28T22:50:51.333Z,2.35
2022-12-28T22:55:58.468Z,2.53
2022-12-28T23:01:07.949Z,2.03
2022-12-28T23:06:12.467Z,2.30
2022-12-28T23:11:34.954Z,2.22
2022-12-28T23:16:39.186Z,2.60
2022-12-28T23:22:00.381Z,3.42
2022-12-28T23:27:21.209Z,3.30
2022-12-28T23:32:25.471Z,3.95
2022-12-28T23:37:28.273Z,3.63
2022-12-28T23:42:31.047Z,3.67
2022-12-28T23:47:35.594Z,3.55
2022-12-28T23:52:38.421Z,4.05
2022-12-28T23:57:42.251Z,4.95
